sensor_id;sensor_type;location;lat;lon;timestamp;P1;durP1;ratioP1;P2;durP2;ratioP2
9745;SDS011;4912;50.836;12.958;2023-10-19T00:02:24;12.75;;;7.70;;
9745;SDS011;4912;50.836;12.958;2023-10-19T00:04:52;26.00;;;15.07;;
9745;SDS011;4912;50.836;12.958;2023-10-19T00:07:23;13.23;;;7.80;;
9745;SDS011;4912;50.836;12.958;2023-10-19T00:09:51;10.95;;;7.05;;
9745;SDS011;4912;50.836;12.958;2023-10-19T00:12:23;12.85;;;7.88;;
9745;SDS011;4912;50.836;12.958;2023-10-19T00:14:57;13.23;;;7.70;;
9745;SDS011;4912;50.836;12.958;2023-10-19T00:17:26;15.07;;;7.47;;
9745;SDS011;4912;50.836;12.958;2023-10-19T00:19:59;14.27;;;7.45;;
9745;SDS011;4912;50.836;12.958;2023-10-19T00:22:55;12.02;;;6.97;;
9745;SDS011;4912;50.836;12.958;2023-10-19T00:25:25;12.85;;;6.82;;
9745;SDS011;4912;50.836;12.958;2023-10-19T00:27:56;13.20;;;7.35;;
9745;SDS011;4912;50.836;12.958;2023-10-19T00:30:29;14.75;;;7.70;;
9745;SDS011;4912;50.836;12.958;2023-10-19T00:33:02;12.18;;;6.57;;
9745;SDS011;4912;50.836;12.958;2023-10-19T00:35:43;16.35;;;7.55;;
9745;SDS011;4912;50.836;12.958;2023-10-19T00:38:18;13.10;;;7.05;;
9745;SDS011;4912;50.836;12.958;2023-10-19T00:41:06;12.07;;;7.13;;
9745;SDS011;4912;50.836;12.958;2023-10-19T00:43:48;15.45;;;7.43;;
9745;SDS011;4912;50.836;12.958;2023-10-19T00:46:27;14.88;;;6.78;;
9745;SDS011;4912;50.836;12.958;2023-10-19T00:49:05;14.93;;;7.25;;
9745;SDS011;4912;50.836;12.958;2023-10-19T00:51:40;19.27;;;7.97;;
9745;SDS011;4912;50.836;12.958;2023-10-19T00:54:22;11.20;;;6.63;;
9745;SDS011;4912;50.836;12.958;2023-10-19T00:57:02;14.02;;;7.53;;
9745;SDS011;4912;50.836;12.958;2023-10-19T00:59:37;12.10;;;7.57;;
9745;SDS011;4912;50.836;12.958;2023-10-19T01:02:17;14.95;;;7.30;;
9745;SDS011;4912;50.836;12.958;2023-10-19T01:04:57;12.80;;;6.70;;
9745;SDS011;4912;50.836;12.958;2023-10-19T01:07:32;17.50;;;7.15;;
9745;SDS011;4912;50.836;12.958;2023-10-19T01:10:07;11.98;;;7.20;;
9745;SDS011;4912;50.836;12.958;2023-10-19T01:12:39;11.60;;;6.97;;
9745;SDS011;4912;50.836;12.958;2023-10-19T01:17:53;12.60;;;6.85;;
9745;SDS011;4912;50.836;12.958;2023-10-19T01:20:27;13.45;;;7.05;;
9745;SDS011;4912;50.836;12.958;2023-10-19T01:23:14;17.65;;;8.00;;
9745;SDS011;4912;50.836;12.958;2023-10-19T01:25:53;14.55;;;7.32;;
9745;SDS011;4912;50.836;12.958;2023-10-19T01:28:35;10.50;;;6.68;;
9745;SDS011;4912;50.836;12.958;2023-10-19T01:31:14;12.20;;;7.05;;
9745;SDS011;4912;50.836;12.958;2023-10-19T01:33:50;12.68;;;6.82;;
9745;SDS011;4912;50.836;12.958;2023-10-19T01:36:22;14.93;;;7.93;;
9745;SDS011;4912;50.836;12.958;2023-10-19T01:39:02;13.82;;;6.93;;
9745;SDS011;4912;50.836;12.958;2023-10-19T01:41:37;11.97;;;7.40;;
9745;SDS011;4912;50.836;12.958;2023-10-19T01:44:08;12.90;;;7.55;;
9745;SDS011;4912;50.836;12.958;2023-10-19T01:46:41;12.52;;;7.18;;
9745;SDS011;4912;50.836;12.958;2023-10-19T01:49:14;13.73;;;7.80;;
9745;SDS011;4912;50.836;12.958;2023-10-19T01:51:53;14.82;;;7.60;;
9745;SDS011;4912;50.836;12.958;2023-10-19T01:56:54;26.65;;;17.25;;
9745;SDS011;4912;50.836;12.958;2023-10-19T01:59:26;35.17;;;21.58;;
9745;SDS011;4912;50.836;12.958;2023-10-19T02:01:56;19.50;;;10.13;;
9745;SDS011;4912;50.836;12.958;2023-10-19T02:04:26;15.02;;;8.80;;
9745;SDS011;4912;50.836;12.958;2023-10-19T02:06:55;16.98;;;9.52;;
9745;SDS011;4912;50.836;12.958;2023-10-19T02:09:29;14.23;;;8.25;;
9745;SDS011;4912;50.836;12.958;2023-10-19T02:11:59;12.63;;;8.18;;
9745;SDS011;4912;50.836;12.958;2023-10-19T02:14:33;15.45;;;9.80;;
9745;SDS011;4912;50.836;12.958;2023-10-19T02:17:01;36.08;;;20.50;;
9745;SDS011;4912;50.836;12.958;2023-10-19T02:19:32;27.90;;;18.00;;
9745;SDS011;4912;50.836;12.958;2023-10-19T02:22:01;13.98;;;8.68;;
9745;SDS011;4912;50.836;12.958;2023-10-19T02:24:38;14.63;;;9.10;;
9745;SDS011;4912;50.836;12.958;2023-10-19T02:27:06;15.13;;;8.93;;
9745;SDS011;4912;50.836;12.958;2023-10-19T02:29:48;15.25;;;8.57;;
9745;SDS011;4912;50.836;12.958;2023-10-19T02:32:17;14.07;;;8.98;;
9745;SDS011;4912;50.836;12.958;2023-10-19T02:34:48;16.35;;;9.00;;
9745;SDS011;4912;50.836;12.958;2023-10-19T02:37:16;17.40;;;8.68;;
9745;SDS011;4912;50.836;12.958;2023-10-19T02:39:49;16.88;;;9.45;;
9745;SDS011;4912;50.836;12.958;2023-10-19T02:42:17;11.48;;;8.20;;
9745;SDS011;4912;50.836;12.958;2023-10-19T02:44:49;15.00;;;9.35;;
9745;SDS011;4912;50.836;12.958;2023-10-19T02:49:48;16.15;;;8.50;;
9745;SDS011;4912;50.836;12.958;2023-10-19T02:52:22;15.68;;;9.00;;
9745;SDS011;4912;50.836;12.958;2023-10-19T02:54:53;15.65;;;9.65;;
9745;SDS011;4912;50.836;12.958;2023-10-19T02:57:28;15.82;;;10.23;;
9745;SDS011;4912;50.836;12.958;2023-10-19T03:00:02;17.15;;;10.40;;
9745;SDS011;4912;50.836;12.958;2023-10-19T03:02:38;14.32;;;9.70;;
9745;SDS011;4912;50.836;12.958;2023-10-19T03:05:09;15.93;;;9.38;;
9745;SDS011;4912;50.836;12.958;2023-10-19T03:07:41;35.13;;;22.67;;
9745;SDS011;4912;50.836;12.958;2023-10-19T03:10:15;42.03;;;27.98;;
9745;SDS011;4912;50.836;12.958;2023-10-19T03:12:50;18.45;;;10.70;;
9745;SDS011;4912;50.836;12.958;2023-10-19T03:15:24;17.00;;;11.15;;
9745;SDS011;4912;50.836;12.958;2023-10-19T03:17:52;17.33;;;11.57;;
9745;SDS011;4912;50.836;12.958;2023-10-19T03:20:22;19.58;;;11.23;;
9745;SDS011;4912;50.836;12.958;2023-10-19T03:22:52;18.35;;;11.27;;
9745;SDS011;4912;50.836;12.958;2023-10-19T03:25:33;15.02;;;10.70;;
9745;SDS011;4912;50.836;12.958;2023-10-19T03:28:18;16.35;;;10.88;;
9745;SDS011;4912;50.836;12.958;2023-10-19T03:30:52;18.85;;;10.88;;
9745;SDS011;4912;50.836;12.958;2023-10-19T03:33:27;16.10;;;11.38;;
9745;SDS011;4912;50.836;12.958;2023-10-19T03:35:58;23.92;;;15.90;;
9745;SDS011;4912;50.836;12.958;2023-10-19T03:38:29;87.10;;;57.10;;
9745;SDS011;4912;50.836;12.958;2023-10-19T03:41:06;37.08;;;22.25;;
9745;SDS011;4912;50.836;12.958;2023-10-19T03:43:37;21.48;;;11.43;;
9745;SDS011;4912;50.836;12.958;2023-10-19T03:46:11;20.77;;;12.13;;
9745;SDS011;4912;50.836;12.958;2023-10-19T03:48:49;18.15;;;10.93;;
9745;SDS011;4912;50.836;12.958;2023-10-19T03:51:25;17.17;;;10.85;;
9745;SDS011;4912;50.836;12.958;2023-10-19T03:56:51;16.67;;;11.30;;
9745;SDS011;4912;50.836;12.958;2023-10-19T03:59:24;15.23;;;10.40;;
9745;SDS011;4912;50.836;12.958;2023-10-19T04:01:58;58.28;;;33.05;;
9745;SDS011;4912;50.836;12.958;2023-10-19T04:04:34;24.55;;;15.95;;
9745;SDS011;4912;50.836;12.958;2023-10-19T04:07:06;16.88;;;10.27;;
9745;SDS011;4912;50.836;12.958;2023-10-19T04:09:45;14.65;;;10.23;;
9745;SDS011;4912;50.836;12.958;2023-10-19T04:12:29;16.60;;;10.55;;
9745;SDS011;4912;50.836;12.958;2023-10-19T04:15:03;14.32;;;10.05;;
9745;SDS011;4912;50.836;12.958;2023-10-19T04:17:42;15.37;;;9.77;;
9745;SDS011;4912;50.836;12.958;2023-10-19T04:20:16;17.25;;;10.68;;
9745;SDS011;4912;50.836;12.958;2023-10-19T04:23:03;15.25;;;9.93;;
9745;SDS011;4912;50.836;12.958;2023-10-19T04:25:39;12.90;;;9.38;;
9745;SDS011;4912;50.836;12.958;2023-10-19T04:28:16;14.25;;;9.50;;
9745;SDS011;4912;50.836;12.958;2023-10-19T04:30:48;12.88;;;9.40;;
9745;SDS011;4912;50.836;12.958;2023-10-19T04:33:19;11.75;;;8.68;;
9745;SDS011;4912;50.836;12.958;2023-10-19T04:35:54;13.07;;;8.95;;
9745;SDS011;4912;50.836;12.958;2023-10-19T04:38:27;14.32;;;9.23;;
9745;SDS011;4912;50.836;12.958;2023-10-19T04:41:03;15.25;;;9.43;;
9745;SDS011;4912;50.836;12.958;2023-10-19T04:43:39;15.00;;;9.95;;
9745;SDS011;4912;50.836;12.958;2023-10-19T04:46:17;13.33;;;9.23;;
9745;SDS011;4912;50.836;12.958;2023-10-19T04:48:49;14.52;;;9.63;;
9745;SDS011;4912;50.836;12.958;2023-10-19T04:51:20;16.25;;;9.50;;
9745;SDS011;4912;50.836;12.958;2023-10-19T04:53:51;14.25;;;9.18;;
9745;SDS011;4912;50.836;12.958;2023-10-19T04:56:22;14.27;;;8.57;;
9745;SDS011;4912;50.836;12.958;2023-10-19T04:58:55;12.85;;;8.85;;
9745;SDS011;4912;50.836;12.958;2023-10-19T05:01:26;14.23;;;8.77;;
9745;SDS011;4912;50.836;12.958;2023-10-19T05:03:56;12.82;;;9.10;;
9745;SDS011;4912;50.836;12.958;2023-10-19T05:06:27;14.00;;;9.48;;
9745;SDS011;4912;50.836;12.958;2023-10-19T05:08:57;11.35;;;8.85;;
9745;SDS011;4912;50.836;12.958;2023-10-19T05:11:29;13.48;;;9.23;;
9745;SDS011;4912;50.836;12.958;2023-10-19T05:14:03;16.10;;;9.30;;
9745;SDS011;4912;50.836;12.958;2023-10-19T05:16:33;15.82;;;10.68;;
9745;SDS011;4912;50.836;12.958;2023-10-19T05:19:04;16.33;;;9.52;;
9745;SDS011;4912;50.836;12.958;2023-10-19T05:21:35;15.38;;;9.48;;
9745;SDS011;4912;50.836;12.958;2023-10-19T05:24:06;15.90;;;9.88;;
9745;SDS011;4912;50.836;12.958;2023-10-19T05:26:38;13.63;;;10.05;;
9745;SDS011;4912;50.836;12.958;2023-10-19T05:29:11;15.52;;;9.82;;
9745;SDS011;4912;50.836;12.958;2023-10-19T05:31:42;15.13;;;11.05;;
9745;SDS011;4912;50.836;12.958;2023-10-19T05:34:13;16.25;;;10.38;;
9745;SDS011;4912;50.836;12.958;2023-10-19T05:36:44;14.82;;;10.43;;
9745;SDS011;4912;50.836;12.958;2023-10-19T05:39:16;15.27;;;10.65;;
9745;SDS011;4912;50.836;12.958;2023-10-19T05:41:47;17.23;;;11.23;;
9745;SDS011;4912;50.836;12.958;2023-10-19T05:46:52;17.75;;;11.05;;
9745;SDS011;4912;50.836;12.958;2023-10-19T05:49:22;16.83;;;11.45;;
9745;SDS011;4912;50.836;12.958;2023-10-19T05:51:56;18.58;;;12.02;;
9745;SDS011;4912;50.836;12.958;2023-10-19T05:54:26;16.58;;;11.18;;
9745;SDS011;4912;50.836;12.958;2023-10-19T05:59:31;19.30;;;10.67;;
9745;SDS011;4912;50.836;12.958;2023-10-19T06:02:02;17.80;;;10.77;;
9745;SDS011;4912;50.836;12.958;2023-10-19T06:04:34;15.73;;;11.10;;
9745;SDS011;4912;50.836;12.958;2023-10-19T06:09:36;17.52;;;11.80;;
9745;SDS011;4912;50.836;12.958;2023-10-19T06:12:07;19.80;;;11.55;;
9745;SDS011;4912;50.836;12.958;2023-10-19T06:14:40;15.20;;;11.02;;
9745;SDS011;4912;50.836;12.958;2023-10-19T06:17:11;18.67;;;11.82;;
9745;SDS011;4912;50.836;12.958;2023-10-19T06:19:46;19.60;;;11.88;;
9745;SDS011;4912;50.836;12.958;2023-10-19T06:22:16;17.35;;;11.65;;
9745;SDS011;4912;50.836;12.958;2023-10-19T06:24:47;18.60;;;11.82;;
9745;SDS011;4912;50.836;12.958;2023-10-19T06:29:52;18.60;;;12.35;;
9745;SDS011;4912;50.836;12.958;2023-10-19T06:32:23;21.88;;;14.43;;
9745;SDS011;4912;50.836;12.958;2023-10-19T06:34:57;19.42;;;12.60;;
9745;SDS011;4912;50.836;12.958;2023-10-19T06:37:28;15.88;;;11.38;;
9745;SDS011;4912;50.836;12.958;2023-10-19T06:39:59;17.70;;;12.27;;
9745;SDS011;4912;50.836;12.958;2023-10-19T06:42:30;17.70;;;11.32;;
9745;SDS011;4912;50.836;12.958;2023-10-19T06:45:05;19.60;;;12.68;;
9745;SDS011;4912;50.836;12.958;2023-10-19T06:47:41;15.70;;;10.82;;
9745;SDS011;4912;50.836;12.958;2023-10-19T06:50:12;18.05;;;11.18;;
9745;SDS011;4912;50.836;12.958;2023-10-19T06:52:45;22.70;;;15.38;;
9745;SDS011;4912;50.836;12.958;2023-10-19T06:55:17;29.05;;;17.40;;
9745;SDS011;4912;50.836;12.958;2023-10-19T06:57:50;19.15;;;12.05;;
9745;SDS011;4912;50.836;12.958;2023-10-19T07:00:25;15.63;;;11.13;;
9745;SDS011;4912;50.836;12.958;2023-10-19T07:02:56;16.75;;;10.93;;
9745;SDS011;4912;50.836;12.958;2023-10-19T07:05:29;17.48;;;11.27;;
9745;SDS011;4912;50.836;12.958;2023-10-19T07:10:33;16.90;;;11.15;;
9745;SDS011;4912;50.836;12.958;2023-10-19T07:13:04;15.85;;;11.05;;
9745;SDS011;4912;50.836;12.958;2023-10-19T07:18:08;15.82;;;10.38;;
9745;SDS011;4912;50.836;12.958;2023-10-19T07:20:39;16.23;;;10.98;;
9745;SDS011;4912;50.836;12.958;2023-10-19T07:23:10;16.40;;;10.38;;
9745;SDS011;4912;50.836;12.958;2023-10-19T07:25:45;14.32;;;9.82;;
9745;SDS011;4912;50.836;12.958;2023-10-19T07:28:21;14.70;;;10.52;;
9745;SDS011;4912;50.836;12.958;2023-10-19T07:30:55;15.38;;;10.55;;
9745;SDS011;4912;50.836;12.958;2023-10-19T07:33:27;15.98;;;10.65;;
9745;SDS011;4912;50.836;12.958;2023-10-19T07:35:57;15.38;;;10.20;;
9745;SDS011;4912;50.836;12.958;2023-10-19T07:38:33;17.40;;;10.65;;
9745;SDS011;4912;50.836;12.958;2023-10-19T07:41:05;16.30;;;9.70;;
9745;SDS011;4912;50.836;12.958;2023-10-19T07:43:36;13.90;;;10.02;;
9745;SDS011;4912;50.836;12.958;2023-10-19T07:46:09;15.30;;;9.70;;
9745;SDS011;4912;50.836;12.958;2023-10-19T07:48:40;12.43;;;8.07;;
9745;SDS011;4912;50.836;12.958;2023-10-19T07:51:11;11.93;;;8.43;;
9745;SDS011;4912;50.836;12.958;2023-10-19T07:53:42;13.38;;;8.55;;
9745;SDS011;4912;50.836;12.958;2023-10-19T07:56:13;15.50;;;10.63;;
9745;SDS011;4912;50.836;12.958;2023-10-19T07:58:45;15.20;;;10.63;;
9745;SDS011;4912;50.836;12.958;2023-10-19T08:01:18;12.07;;;8.20;;
9745;SDS011;4912;50.836;12.958;2023-10-19T08:03:50;13.18;;;8.88;;
9745;SDS011;4912;50.836;12.958;2023-10-19T08:06:21;10.82;;;7.57;;
9745;SDS011;4912;50.836;12.958;2023-10-19T08:08:53;12.15;;;7.63;;
9745;SDS011;4912;50.836;12.958;2023-10-19T08:11:25;10.63;;;7.20;;
9745;SDS011;4912;50.836;12.958;2023-10-19T08:13:55;11.07;;;7.28;;
9745;SDS011;4912;50.836;12.958;2023-10-19T08:16:29;13.52;;;7.90;;
9745;SDS011;4912;50.836;12.958;2023-10-19T08:19:00;11.25;;;7.05;;
9745;SDS011;4912;50.836;12.958;2023-10-19T08:21:31;11.43;;;7.32;;
9745;SDS011;4912;50.836;12.958;2023-10-19T08:24:02;11.85;;;7.13;;
9745;SDS011;4912;50.836;12.958;2023-10-19T08:26:33;13.05;;;7.80;;
9745;SDS011;4912;50.836;12.958;2023-10-19T08:29:04;10.27;;;6.95;;
9745;SDS011;4912;50.836;12.958;2023-10-19T08:31:43;12.05;;;7.88;;
9745;SDS011;4912;50.836;12.958;2023-10-19T08:34:14;10.23;;;6.90;;
9745;SDS011;4912;50.836;12.958;2023-10-19T08:36:46;9.95;;;7.30;;
9745;SDS011;4912;50.836;12.958;2023-10-19T08:39:16;10.45;;;7.75;;
9745;SDS011;4912;50.836;12.958;2023-10-19T08:41:47;10.57;;;8.00;;
9745;SDS011;4912;50.836;12.958;2023-10-19T08:44:20;11.80;;;7.85;;
9745;SDS011;4912;50.836;12.958;2023-10-19T08:46:54;12.07;;;7.93;;
9745;SDS011;4912;50.836;12.958;2023-10-19T08:49:26;9.80;;;6.95;;
9745;SDS011;4912;50.836;12.958;2023-10-19T08:51:56;13.57;;;8.27;;
9745;SDS011;4912;50.836;12.958;2023-10-19T08:54:31;10.98;;;7.25;;
9745;SDS011;4912;50.836;12.958;2023-10-19T08:59:32;14.75;;;8.48;;
9745;SDS011;4912;50.836;12.958;2023-10-19T09:02:07;11.25;;;7.80;;
9745;SDS011;4912;50.836;12.958;2023-10-19T09:04:41;14.98;;;8.20;;
9745;SDS011;4912;50.836;12.958;2023-10-19T09:07:12;11.05;;;7.95;;
9745;SDS011;4912;50.836;12.958;2023-10-19T09:09:43;12.45;;;8.55;;
9745;SDS011;4912;50.836;12.958;2023-10-19T09:12:15;11.90;;;8.32;;
9745;SDS011;4912;50.836;12.958;2023-10-19T09:14:47;11.85;;;8.13;;
9745;SDS011;4912;50.836;12.958;2023-10-19T09:17:20;10.23;;;7.65;;
9745;SDS011;4912;50.836;12.958;2023-10-19T09:19:59;11.07;;;8.38;;
9745;SDS011;4912;50.836;12.958;2023-10-19T09:22:36;9.45;;;7.32;;
9745;SDS011;4912;50.836;12.958;2023-10-19T09:25:11;11.30;;;8.13;;
9745;SDS011;4912;50.836;12.958;2023-10-19T09:27:42;16.77;;;9.93;;
9745;SDS011;4912;50.836;12.958;2023-10-19T09:30:13;11.25;;;8.50;;
9745;SDS011;4912;50.836;12.958;2023-10-19T09:32:50;12.20;;;8.10;;
9745;SDS011;4912;50.836;12.958;2023-10-19T09:35:22;13.23;;;8.57;;
9745;SDS011;4912;50.836;12.958;2023-10-19T09:37:58;11.63;;;7.55;;
9745;SDS011;4912;50.836;12.958;2023-10-19T09:40:31;12.07;;;7.97;;
9745;SDS011;4912;50.836;12.958;2023-10-19T09:43:04;14.98;;;7.43;;
9745;SDS011;4912;50.836;12.958;2023-10-19T09:45:40;11.35;;;7.95;;
9745;SDS011;4912;50.836;12.958;2023-10-19T09:48:16;12.50;;;7.97;;
9745;SDS011;4912;50.836;12.958;2023-10-19T09:50:51;14.60;;;8.82;;
9745;SDS011;4912;50.836;12.958;2023-10-19T09:53:25;11.52;;;7.90;;
9745;SDS011;4912;50.836;12.958;2023-10-19T09:55:59;12.80;;;9.05;;
9745;SDS011;4912;50.836;12.958;2023-10-19T09:58:40;13.88;;;8.23;;
9745;SDS011;4912;50.836;12.958;2023-10-19T10:01:16;13.80;;;8.18;;
9745;SDS011;4912;50.836;12.958;2023-10-19T10:03:51;12.23;;;7.20;;
9745;SDS011;4912;50.836;12.958;2023-10-19T10:06:29;11.75;;;8.02;;
9745;SDS011;4912;50.836;12.958;2023-10-19T10:10:03;10.85;;;8.23;;
9745;SDS011;4912;50.836;12.958;2023-10-19T10:12:34;11.05;;;7.82;;
9745;SDS011;4912;50.836;12.958;2023-10-19T10:15:06;11.35;;;8.10;;
9745;SDS011;4912;50.836;12.958;2023-10-19T10:17:43;11.75;;;8.48;;
9745;SDS011;4912;50.836;12.958;2023-10-19T10:20:33;10.60;;;7.70;;
9745;SDS011;4912;50.836;12.958;2023-10-19T10:23:18;11.57;;;8.18;;
9745;SDS011;4912;50.836;12.958;2023-10-19T10:25:59;11.88;;;7.75;;
9745;SDS011;4912;50.836;12.958;2023-10-19T10:28:31;11.77;;;7.30;;
9745;SDS011;4912;50.836;12.958;2023-10-19T10:31:09;11.27;;;7.68;;
9745;SDS011;4912;50.836;12.958;2023-10-19T10:33:44;10.40;;;7.13;;
9745;SDS011;4912;50.836;12.958;2023-10-19T10:36:19;9.18;;;6.72;;
9745;SDS011;4912;50.836;12.958;2023-10-19T10:38:53;10.60;;;7.00;;
9745;SDS011;4912;50.836;12.958;2023-10-19T10:41:41;9.70;;;7.20;;
9745;SDS011;4912;50.836;12.958;2023-10-19T10:46:43;8.63;;;5.70;;
9745;SDS011;4912;50.836;12.958;2023-10-19T10:49:14;8.82;;;6.25;;
9745;SDS011;4912;50.836;12.958;2023-10-19T10:51:48;8.10;;;6.10;;
9745;SDS011;4912;50.836;12.958;2023-10-19T10:54:21;8.75;;;6.25;;
9745;SDS011;4912;50.836;12.958;2023-10-19T10:56:51;6.88;;;5.30;;
9745;SDS011;4912;50.836;12.958;2023-10-19T11:01:53;9.20;;;5.60;;
9745;SDS011;4912;50.836;12.958;2023-10-19T11:04:23;7.35;;;5.32;;
9745;SDS011;4912;50.836;12.958;2023-10-19T11:09:27;8.85;;;5.80;;
9745;SDS011;4912;50.836;12.958;2023-10-19T11:11:59;8.02;;;5.43;;
9745;SDS011;4912;50.836;12.958;2023-10-19T11:14:29;8.43;;;6.25;;
9745;SDS011;4912;50.836;12.958;2023-10-19T11:17:11;9.52;;;5.85;;
9745;SDS011;4912;50.836;12.958;2023-10-19T11:19:43;9.82;;;5.50;;
9745;SDS011;4912;50.836;12.958;2023-10-19T11:24:47;9.02;;;5.93;;
9745;SDS011;4912;50.836;12.958;2023-10-19T11:27:22;6.97;;;5.40;;
9745;SDS011;4912;50.836;12.958;2023-10-19T11:29:58;12.50;;;5.95;;
9745;SDS011;4912;50.836;12.958;2023-10-19T11:32:35;6.18;;;4.82;;
9745;SDS011;4912;50.836;12.958;2023-10-19T11:35:07;7.20;;;4.97;;
9745;SDS011;4912;50.836;12.958;2023-10-19T11:37:48;7.30;;;5.10;;
9745;SDS011;4912;50.836;12.958;2023-10-19T11:40:21;6.78;;;4.88;;
9745;SDS011;4912;50.836;12.958;2023-10-19T11:42:53;5.90;;;4.88;;
9745;SDS011;4912;50.836;12.958;2023-10-19T11:45:27;7.25;;;4.95;;
9745;SDS011;4912;50.836;12.958;2023-10-19T11:47:58;8.48;;;5.75;;
9745;SDS011;4912;50.836;12.958;2023-10-19T11:50:29;7.88;;;5.15;;
9745;SDS011;4912;50.836;12.958;2023-10-19T11:53:03;6.88;;;5.00;;
9745;SDS011;4912;50.836;12.958;2023-10-19T11:55:37;6.63;;;4.93;;
9745;SDS011;4912;50.836;12.958;2023-10-19T11:58:08;7.38;;;4.80;;
9745;SDS011;4912;50.836;12.958;2023-10-19T12:00:41;13.02;;;8.90;;
9745;SDS011;4912;50.836;12.958;2023-10-19T12:03:13;10.00;;;5.78;;
9745;SDS011;4912;50.836;12.958;2023-10-19T12:05:45;9.77;;;4.75;;
9745;SDS011;4912;50.836;12.958;2023-10-19T12:08:18;6.30;;;5.00;;
9745;SDS011;4912;50.836;12.958;2023-10-19T12:10:50;7.28;;;5.15;;
9745;SDS011;4912;50.836;12.958;2023-10-19T12:13:22;8.48;;;5.45;;
9745;SDS011;4912;50.836;12.958;2023-10-19T12:18:24;6.38;;;4.60;;
9745;SDS011;4912;50.836;12.958;2023-10-19T12:20:56;5.80;;;4.47;;
9745;SDS011;4912;50.836;12.958;2023-10-19T12:23:30;9.90;;;4.38;;
9745;SDS011;4912;50.836;12.958;2023-10-19T12:26:01;6.93;;;4.00;;
9745;SDS011;4912;50.836;12.958;2023-10-19T12:28:38;5.68;;;3.95;;
9745;SDS011;4912;50.836;12.958;2023-10-19T12:31:15;5.72;;;3.75;;
9745;SDS011;4912;50.836;12.958;2023-10-19T12:33:49;6.47;;;3.28;;
9745;SDS011;4912;50.836;12.958;2023-10-19T12:36:20;4.45;;;2.92;;
9745;SDS011;4912;50.836;12.958;2023-10-19T12:39:04;3.88;;;2.65;;
9745;SDS011;4912;50.836;12.958;2023-10-19T12:41:38;5.68;;;3.00;;
9745;SDS011;4912;50.836;12.958;2023-10-19T12:44:08;4.18;;;2.70;;
9745;SDS011;4912;50.836;12.958;2023-10-19T12:46:39;4.35;;;2.80;;
9745;SDS011;4912;50.836;12.958;2023-10-19T12:49:10;4.63;;;3.13;;
9745;SDS011;4912;50.836;12.958;2023-10-19T12:51:45;4.88;;;2.80;;
9745;SDS011;4912;50.836;12.958;2023-10-19T12:54:18;6.07;;;2.90;;
9745;SDS011;4912;50.836;12.958;2023-10-19T12:56:49;3.83;;;2.63;;
9745;SDS011;4912;50.836;12.958;2023-10-19T12:59:21;4.25;;;2.72;;
9745;SDS011;4912;50.836;12.958;2023-10-19T13:01:52;5.15;;;3.10;;
9745;SDS011;4912;50.836;12.958;2023-10-19T13:04:26;4.18;;;2.60;;
9745;SDS011;4912;50.836;12.958;2023-10-19T13:06:58;3.28;;;2.25;;
9745;SDS011;4912;50.836;12.958;2023-10-19T13:09:34;3.75;;;2.30;;
9745;SDS011;4912;50.836;12.958;2023-10-19T13:12:05;3.90;;;2.58;;
9745;SDS011;4912;50.836;12.958;2023-10-19T13:14:37;3.42;;;2.30;;
9745;SDS011;4912;50.836;12.958;2023-10-19T13:17:10;3.55;;;2.45;;
9745;SDS011;4912;50.836;12.958;2023-10-19T13:19:42;4.20;;;2.60;;
9745;SDS011;4912;50.836;12.958;2023-10-19T13:22:12;3.58;;;2.47;;
9745;SDS011;4912;50.836;12.958;2023-10-19T13:24:47;6.07;;;3.03;;
9745;SDS011;4912;50.836;12.958;2023-10-19T13:27:17;5.68;;;2.90;;
9745;SDS011;4912;50.836;12.958;2023-10-19T13:29:48;5.43;;;3.00;;
9745;SDS011;4912;50.836;12.958;2023-10-19T13:32:19;4.65;;;3.03;;
9745;SDS011;4912;50.836;12.958;2023-10-19T13:34:50;4.53;;;2.97;;
9745;SDS011;4912;50.836;12.958;2023-10-19T13:37:22;5.90;;;3.10;;
9745;SDS011;4912;50.836;12.958;2023-10-19T13:39:56;4.40;;;3.10;;
9745;SDS011;4912;50.836;12.958;2023-10-19T13:42:28;5.75;;;3.65;;
9745;SDS011;4912;50.836;12.958;2023-10-19T13:44:59;6.97;;;3.45;;
9745;SDS011;4912;50.836;12.958;2023-10-19T13:47:30;6.35;;;3.05;;
9745;SDS011;4912;50.836;12.958;2023-10-19T13:50:01;4.70;;;3.35;;
9745;SDS011;4912;50.836;12.958;2023-10-19T13:52:34;6.85;;;3.50;;
9745;SDS011;4912;50.836;12.958;2023-10-19T13:55:09;5.90;;;3.45;;
9745;SDS011;4912;50.836;12.958;2023-10-19T13:57:46;6.27;;;2.97;;
9745;SDS011;4912;50.836;12.958;2023-10-19T14:00:19;6.78;;;3.53;;
9745;SDS011;4912;50.836;12.958;2023-10-19T14:02:57;6.60;;;3.67;;
9745;SDS011;4912;50.836;12.958;2023-10-19T14:05:28;5.28;;;3.00;;
9745;SDS011;4912;50.836;12.958;2023-10-19T14:07:59;6.88;;;2.72;;
9745;SDS011;4912;50.836;12.958;2023-10-19T14:10:33;5.68;;;2.58;;
9745;SDS011;4912;50.836;12.958;2023-10-19T14:13:06;5.38;;;3.15;;
9745;SDS011;4912;50.836;12.958;2023-10-19T14:15:38;6.43;;;3.47;;
9745;SDS011;4912;50.836;12.958;2023-10-19T14:18:09;4.00;;;2.70;;
9745;SDS011;4912;50.836;12.958;2023-10-19T14:20:40;7.32;;;2.80;;
9745;SDS011;4912;50.836;12.958;2023-10-19T14:23:11;4.55;;;2.50;;
9745;SDS011;4912;50.836;12.958;2023-10-19T14:25:45;4.03;;;2.88;;
9745;SDS011;4912;50.836;12.958;2023-10-19T14:28:17;8.40;;;4.32;;
9745;SDS011;4912;50.836;12.958;2023-10-19T14:33:21;5.13;;;3.22;;
9745;SDS011;4912;50.836;12.958;2023-10-19T14:35:52;6.80;;;4.70;;
9745;SDS011;4912;50.836;12.958;2023-10-19T14:38:23;5.63;;;3.85;;
9745;SDS011;4912;50.836;12.958;2023-10-19T14:40:58;6.35;;;4.15;;
9745;SDS011;4912;50.836;12.958;2023-10-19T14:43:42;6.38;;;3.65;;
9745;SDS011;4912;50.836;12.958;2023-10-19T14:46:13;5.72;;;3.97;;
9745;SDS011;4912;50.836;12.958;2023-10-19T14:51:14;8.03;;;3.60;;
9745;SDS011;4912;50.836;12.958;2023-10-19T14:53:45;6.10;;;3.85;;
9745;SDS011;4912;50.836;12.958;2023-10-19T14:56:19;8.63;;;4.03;;
9745;SDS011;4912;50.836;12.958;2023-10-19T14:58:50;6.40;;;4.05;;
9745;SDS011;4912;50.836;12.958;2023-10-19T15:01:22;10.65;;;4.07;;
9745;SDS011;4912;50.836;12.958;2023-10-19T15:03:54;7.15;;;3.92;;
9745;SDS011;4912;50.836;12.958;2023-10-19T15:09:01;8.55;;;4.13;;
9745;SDS011;4912;50.836;12.958;2023-10-19T15:11:35;8.20;;;4.20;;
9745;SDS011;4912;50.836;12.958;2023-10-19T15:14:06;12.10;;;4.50;;
9745;SDS011;4912;50.836;12.958;2023-10-19T15:16:39;8.30;;;4.20;;
9745;SDS011;4912;50.836;12.958;2023-10-19T15:19:10;6.60;;;3.72;;
9745;SDS011;4912;50.836;12.958;2023-10-19T15:21:45;7.05;;;4.55;;
9745;SDS011;4912;50.836;12.958;2023-10-19T15:24:16;9.95;;;3.90;;
9745;SDS011;4912;50.836;12.958;2023-10-19T15:26:50;8.82;;;4.40;;
9745;SDS011;4912;50.836;12.958;2023-10-19T15:29:21;6.45;;;3.90;;
9745;SDS011;4912;50.836;12.958;2023-10-19T15:34:23;8.68;;;4.60;;
9745;SDS011;4912;50.836;12.958;2023-10-19T15:36:54;7.32;;;4.25;;
9745;SDS011;4912;50.836;12.958;2023-10-19T15:41:59;11.30;;;4.75;;
9745;SDS011;4912;50.836;12.958;2023-10-19T15:44:30;7.72;;;4.30;;
9745;SDS011;4912;50.836;12.958;2023-10-19T15:47:02;12.23;;;4.97;;
9745;SDS011;4912;50.836;12.958;2023-10-19T15:49:37;10.15;;;4.88;;
9745;SDS011;4912;50.836;12.958;2023-10-19T15:52:18;7.57;;;3.83;;
9745;SDS011;4912;50.836;12.958;2023-10-19T15:54:50;8.35;;;4.70;;
9745;SDS011;4912;50.836;12.958;2023-10-19T15:57:24;7.38;;;4.07;;
9745;SDS011;4912;50.836;12.958;2023-10-19T15:59:57;10.30;;;5.10;;
9745;SDS011;4912;50.836;12.958;2023-10-19T16:02:31;7.75;;;4.10;;
9745;SDS011;4912;50.836;12.958;2023-10-19T16:05:03;9.27;;;5.47;;
9745;SDS011;4912;50.836;12.958;2023-10-19T16:07:35;25.17;;;15.75;;
9745;SDS011;4912;50.836;12.958;2023-10-19T16:10:06;30.00;;;20.73;;
9745;SDS011;4912;50.836;12.958;2023-10-19T16:12:42;10.10;;;6.18;;
9745;SDS011;4912;50.836;12.958;2023-10-19T16:15:13;9.63;;;5.32;;
9745;SDS011;4912;50.836;12.958;2023-10-19T16:17:44;7.70;;;4.85;;
9745;SDS011;4912;50.836;12.958;2023-10-19T16:20:15;8.52;;;5.60;;